createdAt,value
2023-09-08T00:02:14.928Z,98830.16
2023-09-08T00:04:41.750Z,98816.28
2023-09-08T00:07:08.501Z,98822.56
2023-09-08T00:09:35.208Z,98823.00
2023-09-08T00:12:02.667Z,98816.00
2023-09-08T00:14:29.549Z,98814.56
2023-09-08T00:16:56.309Z,98818.19
2023-09-08T00:19:24.463Z,98813.03
2023-09-08T00:21:51.668Z,98815.09
2023-09-08T00:24:19.360Z,98809.78
2023-09-08T00:26:46.313Z,98810.31
2023-09-08T00:29:13.162Z,98810.56
2023-09-08T00:31:39.950Z,98815.03
2023-09-08T00:34:07.763Z,98810.25
2023-09-08T00:36:34.825Z,98814.00
2023-09-08T00:39:01.504Z,98813.00
2023-09-08T00:41:28.210Z,98814.81
2023-09-08T00:43:54.869Z,98809.66
2023-09-08T00:46:21.892Z,98811.44
2023-09-08T00:48:48.777Z,98813.28
2023-09-08T00:51:15.868Z,98821.50
2023-09-08T00:53:43.011Z,98813.34
2023-09-08T00:56:11.389Z,98819.75
2023-09-08T00:58:38.547Z,98817.63
2023-09-08T01:01:07.057Z,98807.84
2023-09-08T01:03:34.139Z,98814.25
2023-09-08T01:06:01.754Z,98818.00
2023-09-08T01:08:29.178Z,98819.94
2023-09-08T01:10:56.451Z,98816.47
2023-09-08T01:13:23.072Z,98815.88
2023-09-08T01:15:50.806Z,98809.00
2023-09-08T01:18:17.826Z,98822.41
2023-09-08T01:20:59.790Z,98818.91
2023-09-08T01:23:50.370Z,98810.94
2023-09-08T01:26:22.714Z,98812.06
2023-09-08T01:28:51.435Z,98815.78
2023-09-08T01:31:19.181Z,98821.47
2023-09-08T01:33:46.786Z,98817.50
2023-09-08T01:36:15.537Z,98824.66
2023-09-08T01:38:42.299Z,98820.69
2023-09-08T01:41:09.183Z,98820.09
2023-09-08T01:43:36.083Z,98820.22
2023-09-08T01:46:02.882Z,98812.38
2023-09-08T01:48:29.604Z,98813.47
2023-09-08T01:50:56.270Z,98808.16
2023-09-08T01:53:23.021Z,98805.66
2023-09-08T01:55:49.603Z,98811.94
2023-09-08T01:58:16.318Z,98804.81
2023-09-08T02:00:43.069Z,98807.59
2023-09-08T02:03:09.762Z,98800.47
2023-09-08T02:05:40.326Z,98802.66
2023-09-08T02:08:07.187Z,98808.94
2023-09-08T02:10:33.845Z,98810.16
2023-09-08T02:13:00.593Z,98806.75
2023-09-08T02:15:27.345Z,98814.16
2023-09-08T02:17:56.193Z,98801.53
2023-09-08T02:20:23.124Z,98804.03
2023-09-08T02:22:54.477Z,98806.56
2023-09-08T02:25:21.187Z,98796.22
2023-09-08T02:27:47.814Z,98795.88
2023-09-08T02:30:14.579Z,98802.97
2023-09-08T02:32:44.385Z,98801.28
2023-09-08T02:35:11.322Z,98805.03
2023-09-08T02:37:38.183Z,98808.66
2023-09-08T02:40:07.127Z,98813.97
2023-09-08T02:42:34.123Z,98802.50
2023-09-08T02:45:01.168Z,98813.09
2023-09-08T02:47:27.844Z,98810.56
2023-09-08T02:49:54.449Z,98808.13
2023-09-08T02:52:21.120Z,98814.56
2023-09-08T02:54:47.815Z,98812.97
2023-09-08T02:57:14.467Z,98819.34
2023-09-08T02:59:41.146Z,98814.19
2023-09-08T03:02:07.881Z,98815.28
2023-09-08T03:04:34.725Z,98819.84
2023-09-08T03:07:01.382Z,98815.63
2023-09-08T03:09:28.040Z,98812.25
2023-09-08T03:11:54.688Z,98812.50
2023-09-08T03:14:21.397Z,98815.41
2023-09-08T03:16:48.201Z,98808.53
2023-09-08T03:19:14.849Z,98823.47
2023-09-08T03:21:41.437Z,98816.63
2023-09-08T03:24:08.142Z,98814.19
2023-09-08T03:26:34.819Z,98819.50
2023-09-08T03:29:01.520Z,98815.41
2023-09-08T03:31:28.819Z,98815.56
2023-09-08T03:33:55.812Z,98818.41
2023-09-08T03:36:22.587Z,98810.00
2023-09-08T03:38:49.246Z,98810.13
2023-09-08T03:41:16.043Z,98809.53
2023-09-08T03:43:42.717Z,98811.06
2023-09-08T03:46:09.406Z,98805.19
2023-09-08T03:48:36.115Z,98801.94
2023-09-08T03:51:02.747Z,98808.91
2023-09-08T03:53:29.533Z,98806.25
2023-09-08T03:55:56.234Z,98809.00
2023-09-08T03:58:22.907Z,98810.13
2023-09-08T04:00:49.790Z,98811.91
2023-09-08T04:03:16.658Z,98806.84
2023-09-08T04:05:43.320Z,98807.00
2023-09-08T04:08:10.267Z,98808.88
2023-09-08T04:10:36.903Z,98810.00
2023-09-08T04:13:03.677Z,98811.78
2023-09-08T04:15:30.413Z,98814.56
2023-09-08T04:17:58.393Z,98817.44
2023-09-08T04:20:27.067Z,98823.22
2023-09-08T04:22:53.713Z,98825.13
2023-09-08T04:25:20.464Z,98818.16
2023-09-08T04:27:47.108Z,98813.22
2023-09-08T04:30:15.472Z,98821.38
2023-09-08T04:32:42.534Z,98818.84
2023-09-08T04:35:09.543Z,98818.97
2023-09-08T04:37:37.616Z,98821.72
2023-09-08T04:40:05.596Z,98814.66
2023-09-08T04:42:32.557Z,98820.06
2023-09-08T04:44:59.391Z,98815.63
2023-09-08T04:47:26.130Z,98825.47
2023-09-08T04:49:52.794Z,98821.97
2023-09-08T04:52:19.594Z,98820.41
2023-09-08T04:54:46.842Z,98826.78
2023-09-08T04:57:22.909Z,98825.94
2023-09-08T04:59:51.106Z,98835.69
2023-09-08T05:02:19.704Z,98834.22
2023-09-08T05:04:46.542Z,98835.16
2023-09-08T05:07:14.639Z,98833.47
2023-09-08T05:09:41.624Z,98831.69
2023-09-08T05:12:08.351Z,98838.78
2023-09-08T05:14:35.251Z,98832.53
2023-09-08T05:17:01.896Z,98837.00
2023-09-08T05:19:28.589Z,98828.09
2023-09-08T05:21:56.150Z,98833.16
2023-09-08T05:24:23.039Z,98839.63
2023-09-08T05:26:49.927Z,98831.56
2023-09-08T05:29:16.585Z,98833.38
2023-09-08T05:31:43.321Z,98840.25
2023-09-08T05:34:10.479Z,98840.13
2023-09-08T05:36:39.469Z,98840.59
2023-09-08T05:39:06.508Z,98853.25
2023-09-08T05:41:35.036Z,98845.47
2023-09-08T05:44:02.106Z,98842.97
2023-09-08T05:46:29.141Z,98843.94
2023-09-08T05:48:55.860Z,98845.88
2023-09-08T05:51:23.761Z,98847.69
2023-09-08T05:53:50.536Z,98851.69
2023-09-08T05:56:19.637Z,98857.09
2023-09-08T05:58:46.382Z,98850.94
2023-09-08T06:01:13.077Z,98852.75
2023-09-08T06:03:39.873Z,98860.94
2023-09-08T06:06:06.727Z,98856.50
2023-09-08T06:08:33.814Z,98855.75
2023-09-08T06:11:00.707Z,98852.56
2023-09-08T06:13:28.011Z,98852.53
2023-09-08T06:15:54.849Z,98851.53
2023-09-08T06:18:22.038Z,98851.47
2023-09-08T06:20:55.913Z,98853.22
2023-09-08T06:23:23.996Z,98853.75
2023-09-08T06:25:50.917Z,98852.97
2023-09-08T06:28:17.527Z,98853.31
2023-09-08T06:30:44.229Z,98849.38
2023-09-08T06:33:11.451Z,98859.66
2023-09-08T06:35:38.445Z,98850.38
2023-09-08T06:38:05.835Z,98853.50
2023-09-08T06:40:32.544Z,98857.47
2023-09-08T06:43:01.371Z,98856.13
2023-09-08T06:45:29.678Z,98863.03
2023-09-08T06:47:56.663Z,98862.50
2023-09-08T06:50:24.307Z,98857.78
2023-09-08T06:52:51.649Z,98861.72
2023-09-08T06:55:18.606Z,98864.09
2023-09-08T06:57:45.907Z,98856.66
2023-09-08T07:00:14.118Z,98857.06
2023-09-08T07:02:42.911Z,98861.13
2023-09-08T07:05:09.970Z,98862.22
2023-09-08T07:07:36.975Z,98865.97
2023-09-08T07:10:07.615Z,98866.19
2023-09-08T07:12:34.458Z,98865.41
2023-09-08T07:15:01.262Z,98864.94
2023-09-08T07:17:28.105Z,98869.16
2023-09-08T07:19:54.941Z,98858.53
2023-09-08T07:22:21.765Z,98865.03
2023-09-08T07:24:48.399Z,98863.28
2023-09-08T07:27:15.555Z,98867.38
2023-09-08T07:29:42.465Z,98867.38
2023-09-08T07:32:09.368Z,98865.72
2023-09-08T07:34:36.070Z,98868.91
2023-09-08T07:37:02.742Z,98866.81
2023-09-08T07:39:29.476Z,98869.16
2023-09-08T07:41:59.091Z,98866.94
2023-09-08T07:44:28.395Z,98872.09
2023-09-08T07:46:57.274Z,98869.81
2023-09-08T07:49:25.225Z,98861.38
2023-09-08T07:51:52.805Z,98863.53
2023-09-08T07:54:20.657Z,98864.41
2023-09-08T07:56:48.054Z,98858.84
2023-09-08T07:59:14.961Z,98857.75
2023-09-08T08:01:41.856Z,98854.53
2023-09-08T08:04:09.492Z,98858.09
2023-09-08T08:06:36.628Z,98858.66
2023-09-08T08:09:03.800Z,98852.44
2023-09-08T08:11:30.920Z,98848.06
2023-09-08T08:14:00.522Z,98849.00
2023-09-08T08:16:27.266Z,98846.22
2023-09-08T08:18:54.047Z,98848.94
2023-09-08T08:21:21.942Z,98857.72
2023-09-08T08:23:48.656Z,98850.34
2023-09-08T08:26:15.378Z,98850.25
2023-09-08T08:28:42.105Z,98852.53
2023-09-08T08:31:08.998Z,98857.63
2023-09-08T08:33:37.943Z,98854.66
2023-09-08T08:36:04.774Z,98843.88
2023-09-08T08:38:31.442Z,98844.38
2023-09-08T08:41:04.797Z,98849.69
2023-09-08T08:43:33.440Z,98851.44
2023-09-08T08:46:01.414Z,98853.84
2023-09-08T08:48:31.094Z,98855.34
2023-09-08T08:50:59.615Z,98856.44
2023-09-08T08:53:28.267Z,98853.50
2023-09-08T08:55:58.242Z,98844.22
2023-09-08T08:58:27.887Z,98852.16
2023-09-08T09:00:58.589Z,98849.19
2023-09-08T09:03:27.237Z,62137.28
2023-09-08T09:05:54.687Z,98849.19
2023-09-08T09:08:23.266Z,98845.81
2023-09-08T09:10:50.068Z,98844.34
2023-09-08T09:13:16.831Z,98842.88
2023-09-08T09:15:45.420Z,98837.66
2023-09-08T09:18:13.118Z,98844.31
2023-09-08T09:20:42.400Z,98846.81
2023-09-08T09:23:10.095Z,62137.28
2023-09-08T09:25:37.493Z,62137.28
2023-09-08T09:28:05.026Z,62137.28
2023-09-08T09:30:53.137Z,98846.81
2023-09-08T09:33:20.606Z,98834.00
2023-09-08T09:35:50.975Z,98835.16
2023-09-08T09:38:20.476Z,98833.97
2023-09-08T09:40:48.534Z,98829.34
2023-09-08T09:43:18.389Z,62137.28
2023-09-08T09:45:46.256Z,62137.28
2023-09-08T09:48:13.590Z,62137.28
2023-09-08T09:50:42.386Z,62137.28
2023-09-08T09:53:12.436Z,62137.28
2023-09-08T09:55:40.290Z,62137.28
2023-09-08T09:58:08.267Z,62137.28
2023-09-08T10:00:36.452Z,62137.28
2023-09-08T10:03:04.359Z,62137.28
2023-09-08T10:05:31.246Z,62137.28
2023-09-08T10:07:59.280Z,62137.28
2023-09-08T10:10:28.553Z,62137.28
2023-09-08T10:12:58.525Z,62137.28
2023-09-08T10:15:25.899Z,62137.28
2023-09-08T10:17:58.334Z,62137.28
2023-09-08T10:20:26.812Z,62137.28
2023-09-08T10:23:21.496Z,62137.28
2023-09-08T10:25:55.652Z,62137.28
2023-09-08T10:28:26.261Z,62137.28
2023-09-08T10:30:54.402Z,62137.28
2023-09-08T10:33:22.236Z,62137.28
2023-09-08T10:35:49.162Z,62137.28
2023-09-08T10:38:35.079Z,62137.28
2023-09-08T10:41:17.645Z,62137.28
2023-09-08T10:43:55.667Z,62137.28
2023-09-08T10:46:28.886Z,62137.28
2023-09-08T10:49:03.219Z,62137.28
2023-09-08T10:51:30.383Z,62137.28
2023-09-08T10:53:58.031Z,62137.28
2023-09-08T10:56:49.984Z,62137.28
2023-09-08T10:59:17.161Z,62137.28
2023-09-08T11:01:43.951Z,62137.28
2023-09-08T11:04:12.025Z,62137.28
2023-09-08T11:06:38.698Z,62137.28
2023-09-08T11:09:09.411Z,62137.28
2023-09-08T11:11:38.156Z,62137.28
2023-09-08T11:14:05.444Z,62137.28
2023-09-08T11:16:34.936Z,62137.28
2023-09-08T11:19:05.710Z,62137.28
2023-09-08T11:21:38.033Z,62137.28
2023-09-08T11:24:07.291Z,62137.28
2023-09-08T11:26:35.629Z,62137.28
2023-09-08T11:29:02.420Z,62137.28
2023-09-08T11:31:29.137Z,62137.28
2023-09-08T11:33:56.790Z,62137.28
2023-09-08T11:36:23.479Z,62137.28
2023-09-08T11:38:50.517Z,62137.28
2023-09-08T11:41:17.931Z,62137.28
2023-09-08T11:43:44.733Z,62137.28
2023-09-08T11:46:13.772Z,62137.28
2023-09-08T11:48:40.901Z,62137.28
2023-09-08T11:51:09.179Z,62137.28
2023-09-08T11:53:38.391Z,62137.28
2023-09-08T11:56:05.941Z,62137.28
2023-09-08T11:58:33.549Z,62137.28
2023-09-08T12:01:00.603Z,62137.28
2023-09-08T12:03:27.369Z,62137.28
2023-09-08T12:05:54.647Z,62137.28
2023-09-08T12:08:21.409Z,62137.28
2023-09-08T12:10:48.122Z,62137.28
2023-09-08T12:13:22.246Z,62137.28
2023-09-08T12:15:49.148Z,62137.28
2023-09-08T12:18:17.044Z,62137.28
2023-09-08T12:20:44.755Z,62137.28
2023-09-08T12:23:22.950Z,62137.28
2023-09-08T12:25:51.488Z,62137.28
2023-09-08T12:28:20.488Z,62137.28
2023-09-08T12:30:47.911Z,62137.28
2023-09-08T12:33:16.343Z,62137.28
2023-09-08T12:35:49.506Z,62137.28
2023-09-08T12:38:16.246Z,62137.28
2023-09-08T12:40:42.943Z,62137.28
2023-09-08T12:43:14.085Z,62137.28
2023-09-08T12:45:53.044Z,62137.28
2023-09-08T12:48:20.160Z,62137.28
2023-09-08T12:50:49.432Z,98754.78
2023-09-08T12:53:17.889Z,98754.88
2023-09-08T12:55:44.924Z,98750.22
2023-09-08T12:58:11.544Z,98754.06
2023-09-08T13:00:38.256Z,98754.31
2023-09-08T13:03:05.562Z,98752.28
2023-09-08T13:05:35.113Z,98753.88
2023-09-08T13:08:01.989Z,98746.31
2023-09-08T13:10:28.709Z,98737.16
2023-09-08T13:12:56.113Z,98741.75
2023-09-08T13:15:24.035Z,98735.19
2023-09-08T13:17:50.909Z,98737.34
2023-09-08T13:20:17.881Z,98731.53
2023-09-08T13:22:45.358Z,98728.34
2023-09-08T13:25:12.166Z,98739.56
2023-09-08T13:27:41.382Z,98736.47
2023-09-08T13:30:11.698Z,98728.88
2023-09-08T13:32:39.175Z,98730.59
2023-09-08T13:35:07.658Z,98734.28
2023-09-08T13:37:35.694Z,98733.28
2023-09-08T13:40:05.353Z,98725.56
2023-09-08T13:42:32.254Z,98729.44
2023-09-08T13:44:59.250Z,98717.94
2023-09-08T13:47:26.492Z,98714.91
2023-09-08T13:49:55.632Z,98721.91
2023-09-08T13:52:28.405Z,98711.31
2023-09-08T13:57:29.206Z,98712.78
2023-09-08T13:59:57.697Z,98710.47
2023-09-08T14:04:56.076Z,98709.97
2023-09-08T14:07:27.817Z,98710.19
2023-09-08T14:12:34.298Z,98702.72
2023-09-08T14:15:04.440Z,98707.78
2023-09-08T14:17:31.249Z,98706.53
2023-09-08T14:19:58.148Z,98696.16
2023-09-08T14:22:25.723Z,98703.97
2023-09-08T14:24:52.454Z,98708.03
2023-09-08T14:27:19.651Z,98704.00
2023-09-08T14:29:46.343Z,98709.06
2023-09-08T14:32:13.069Z,98704.75
2023-09-08T14:34:39.783Z,98703.47
2023-09-08T14:37:08.731Z,98704.56
2023-09-08T14:39:37.650Z,98693.59
2023-09-08T14:42:06.925Z,98693.66
2023-09-08T14:44:33.975Z,98685.59
2023-09-08T14:47:02.428Z,98691.69
2023-09-08T14:49:29.217Z,98689.78
2023-09-08T14:51:55.901Z,98686.69
2023-09-08T14:54:22.806Z,98695.59
2023-09-08T14:56:49.462Z,98687.00
2023-09-08T14:59:16.186Z,98688.41
2023-09-08T15:01:44.553Z,98686.28
2023-09-08T15:04:12.006Z,98690.81
2023-09-08T15:06:38.708Z,98684.38
2023-09-08T15:09:06.307Z,98688.00
2023-09-08T15:11:32.983Z,98684.81
2023-09-08T15:13:59.695Z,98688.38
2023-09-08T15:16:27.863Z,98698.59
2023-09-08T15:18:56.121Z,98692.25
2023-09-08T15:21:28.517Z,98692.56
2023-09-08T15:23:55.290Z,98695.22
2023-09-08T15:26:22.108Z,98694.28
2023-09-08T15:28:48.873Z,98684.59
2023-09-08T15:31:19.117Z,98690.63
2023-09-08T15:33:46.437Z,98685.88
2023-09-08T15:36:13.894Z,98685.69
2023-09-08T15:38:41.509Z,98685.63
2023-09-08T15:41:08.338Z,98682.16
2023-09-08T15:43:40.278Z,98675.19
2023-09-08T15:46:07.865Z,98681.78
2023-09-08T15:48:35.803Z,98688.97
2023-09-08T15:51:02.713Z,98680.22
2023-09-08T15:53:29.421Z,98693.34
2023-09-08T15:55:56.705Z,98684.41
2023-09-08T15:58:23.364Z,98686.41
2023-09-08T16:00:50.218Z,98679.09
2023-09-08T16:03:17.269Z,98679.78
2023-09-08T16:05:44.155Z,98676.88
2023-09-08T16:08:10.853Z,98678.09
2023-09-08T16:10:37.472Z,98678.91
2023-09-08T16:13:04.234Z,98683.72
2023-09-08T16:15:31.057Z,98678.38
2023-09-08T16:18:00.174Z,98680.19
2023-09-08T16:20:27.160Z,98682.91
2023-09-08T16:22:53.926Z,98682.19
2023-09-08T16:25:20.573Z,98682.53
2023-09-08T16:27:47.306Z,98684.25
2023-09-08T16:30:14.277Z,98687.16
2023-09-08T16:32:41.229Z,98682.19
2023-09-08T16:35:08.691Z,98681.03
2023-09-08T16:37:35.651Z,98684.66
2023-09-08T16:40:02.386Z,98683.66
2023-09-08T16:42:29.257Z,98674.94
2023-09-08T16:44:55.940Z,62137.28
2023-09-08T16:47:24.490Z,72923.28
2023-09-08T16:49:51.753Z,98677.81
2023-09-08T16:52:18.566Z,98673.47
2023-09-08T16:54:47.140Z,98675.25
2023-09-08T16:57:17.031Z,98680.69
2023-09-08T16:59:43.837Z,98676.34
2023-09-08T17:02:10.657Z,98677.84
2023-09-08T17:04:37.355Z,98679.31
2023-09-08T17:07:04.542Z,98678.34
2023-09-08T17:09:31.277Z,98673.56
2023-09-08T17:11:57.958Z,98679.00
2023-09-08T17:14:24.946Z,98676.97
2023-09-08T17:16:51.708Z,98673.47
2023-09-08T17:19:18.311Z,98672.00
2023-09-08T17:21:46.118Z,98671.59
2023-09-08T17:24:13.744Z,98666.81
2023-09-08T17:26:40.543Z,98665.56
2023-09-08T17:29:08.970Z,62137.28
2023-09-08T17:31:36.138Z,62137.28
2023-09-08T17:34:03.157Z,62137.28
2023-09-08T17:36:30.026Z,62137.28
2023-09-08T17:38:57.019Z,62137.28
2023-09-08T17:41:23.626Z,62137.28
2023-09-08T17:43:50.339Z,98685.81
2023-09-08T17:46:17.146Z,98681.00
2023-09-08T17:48:43.887Z,98678.63
2023-09-08T17:51:10.670Z,98682.09
2023-09-08T17:53:38.540Z,98686.78
2023-09-08T17:56:05.667Z,98685.88
2023-09-08T17:58:32.327Z,98688.28
2023-09-08T18:00:59.107Z,98687.34
2023-09-08T18:03:26.023Z,98683.91
2023-09-08T18:05:52.791Z,98683.16
2023-09-08T18:08:19.547Z,98690.31
2023-09-08T18:10:47.663Z,98687.66
2023-09-08T18:13:14.538Z,98684.63
2023-09-08T18:15:41.376Z,98680.09
2023-09-08T18:18:08.148Z,98689.06
2023-09-08T18:20:35.352Z,98698.47
2023-09-08T18:23:01.967Z,98696.25
2023-09-08T18:25:28.780Z,98699.78
2023-09-08T18:27:55.598Z,98703.97
2023-09-08T18:30:22.387Z,98706.06
2023-09-08T18:32:49.456Z,98710.72
2023-09-08T18:35:16.545Z,98706.84
2023-09-08T18:37:43.287Z,98706.50
2023-09-08T18:40:11.690Z,98707.91
2023-09-08T18:42:39.774Z,98711.63
2023-09-08T18:45:07.041Z,98714.56
2023-09-08T18:47:33.866Z,98715.66
2023-09-08T18:50:00.885Z,98718.94
2023-09-08T18:52:27.659Z,98714.81
2023-09-08T18:54:54.292Z,98719.56
2023-09-08T18:57:20.951Z,98729.06
2023-09-08T18:59:50.152Z,98723.69
2023-09-08T19:02:17.015Z,98728.78
2023-09-08T19:04:44.024Z,98722.63
2023-09-08T19:07:10.756Z,98724.16
2023-09-08T19:09:37.439Z,98729.56
2023-09-08T19:12:04.311Z,98725.06
2023-09-08T19:14:31.122Z,98728.63
2023-09-08T19:16:58.871Z,98734.19
2023-09-08T19:19:25.867Z,98738.53
2023-09-08T19:21:52.457Z,98735.56
2023-09-08T19:24:20.283Z,98733.88
2023-09-08T19:26:47.137Z,98737.38
2023-09-08T19:29:13.961Z,98741.09
2023-09-08T19:31:40.624Z,98744.31
2023-09-08T19:34:08.292Z,98738.28
2023-09-08T19:36:35.075Z,98738.78
2023-09-08T19:39:01.758Z,98741.28
2023-09-08T19:41:28.509Z,98744.13
2023-09-08T19:43:55.128Z,98749.31
2023-09-08T19:46:21.967Z,98744.44
2023-09-08T19:48:48.734Z,98742.13
2023-09-08T19:51:16.168Z,98750.97
2023-09-08T19:53:42.943Z,98745.25
2023-09-08T19:56:09.789Z,98753.56
2023-09-08T19:58:36.473Z,98745.88
2023-09-08T20:01:07.996Z,98753.91
2023-09-08T20:03:35.470Z,98753.38
2023-09-08T20:06:02.898Z,98749.84
2023-09-08T20:08:29.904Z,98750.31
2023-09-08T20:10:56.827Z,98761.34
2023-09-08T20:13:24.108Z,98754.34
2023-09-08T20:16:07.471Z,98752.00
2023-09-08T20:18:35.506Z,98753.94
2023-09-08T20:21:04.073Z,98753.25
2023-09-08T20:23:35.524Z,98751.38
2023-09-08T20:26:03.712Z,98752.16
2023-09-08T20:28:30.428Z,98748.28
2023-09-08T20:33:26.745Z,98750.41
2023-09-08T20:35:53.545Z,98751.25
2023-09-08T20:38:20.711Z,98755.25
2023-09-08T20:40:54.093Z,98749.53
2023-09-08T20:43:23.945Z,98747.63
2023-09-08T20:45:55.525Z,98749.94
2023-09-08T20:48:22.571Z,98750.41
2023-09-08T20:50:58.544Z,98749.09
2023-09-08T20:53:25.168Z,98743.59
2023-09-08T20:55:51.788Z,98743.59
2023-09-08T20:58:18.440Z,98751.75
2023-09-08T21:00:45.096Z,98751.25
2023-09-08T21:03:11.907Z,98751.41
2023-09-08T21:05:38.753Z,98748.03
2023-09-08T21:08:05.853Z,98749.81
2023-09-08T21:10:33.090Z,98751.13
2023-09-08T21:12:59.734Z,98750.91
2023-09-08T21:15:26.504Z,98760.22
2023-09-08T21:17:53.281Z,98752.22
2023-09-08T21:20:20.420Z,98753.34
2023-09-08T21:22:47.157Z,98751.81
2023-09-08T21:25:13.783Z,98752.97
2023-09-08T21:27:40.497Z,98756.19
2023-09-08T21:30:07.973Z,98755.13
2023-09-08T21:32:34.675Z,98744.78
2023-09-08T21:35:01.394Z,98748.72
2023-09-08T21:37:28.461Z,98745.66
2023-09-08T21:39:55.103Z,98744.13
2023-09-08T21:42:21.698Z,98741.25
2023-09-08T21:44:48.378Z,98740.34
2023-09-08T21:47:16.353Z,98740.34
2023-09-08T21:49:43.135Z,98745.94
2023-09-08T21:52:10.033Z,98740.09
2023-09-08T21:54:37.316Z,98742.06
2023-09-08T21:57:04.187Z,98743.19
2023-09-08T21:59:31.702Z,98741.84
2023-09-08T22:01:58.588Z,98741.28
2023-09-08T22:04:25.931Z,98743.25
2023-09-08T22:06:53.913Z,98745.00
2023-09-08T22:09:21.773Z,98745.88
2023-09-08T22:11:51.605Z,98746.41
2023-09-08T22:14:18.749Z,98746.84
2023-09-08T22:16:45.594Z,98746.31
2023-09-08T22:19:12.852Z,98750.69
2023-09-08T22:21:39.754Z,98747.59
2023-09-08T22:24:06.787Z,98746.78
2023-09-08T22:26:33.643Z,98738.09
2023-09-08T22:29:00.350Z,98739.59
2023-09-08T22:31:27.106Z,98740.91
2023-09-08T22:33:53.990Z,98737.38
2023-09-08T22:36:21.184Z,98741.03
2023-09-08T22:38:48.602Z,98746.66
2023-09-08T22:41:15.340Z,98738.97
2023-09-08T22:43:41.937Z,98736.72
2023-09-08T22:46:08.891Z,98735.03
2023-09-08T22:48:36.387Z,98741.78
2023-09-08T22:51:04.857Z,98736.63
2023-09-08T22:53:31.717Z,98741.41
2023-09-08T22:55:58.676Z,98747.16
2023-09-08T22:58:26.398Z,98749.97
2023-09-08T23:00:53.140Z,98750.53
2023-09-08T23:03:19.986Z,98750.13
2023-09-08T23:05:46.779Z,98745.63
2023-09-08T23:08:13.478Z,98742.44
2023-09-08T23:10:40.098Z,98747.88
2023-09-08T23:13:06.788Z,98745.53
2023-09-08T23:15:34.394Z,98747.22
2023-09-08T23:18:01.166Z,98743.69
2023-09-08T23:20:27.996Z,98741.75
2023-09-08T23:22:54.649Z,98743.59
2023-09-08T23:25:21.221Z,98750.59
2023-09-08T23:27:47.985Z,98735.88
2023-09-08T23:30:14.728Z,98745.84
2023-09-08T23:32:44.244Z,98733.22
2023-09-08T23:40:55.698Z,98738.97
2023-09-08T23:43:22.423Z,98738.97
2023-09-08T23:48:40.044Z,98735.34
2023-09-08T23:51:06.672Z,98732.97
2023-09-08T23:59:15.691Z,98732.22
